Portada
METAR-TAF:

METAR-TAF

Aeroports :

Yasuj, Iran

latitud: 30-41-49N, longitud: 051-33E, altitud: 1825 m

Observació

L'informe es va fer fa 30 minuts, a les 17:00 UTC
Vent 12 kt del Sud amb ràfegues de 22 kt
Temperatura 10°C
Humitat 29%
Pressió 1019 hPa
Visibilitat 10 km o més
Núvols disperses a una alçada de 4000 ft
Cel ennuvolat a una alçada de 8000 ft

METAR: OISY 201700Z 18012G22KT 9999 SCT040 BKN080 10/M07 Q1019

Hora: 21:00 (17:30 UTC)


TAF: manca

Observacions i pronòstics meteorològics de més de 4000 aeroports (METAR i TAF).

Les estacions disponibles són els punts grocs i vermells al mapa.

Posi el ratolí al punt desitjat per veure el nom de l'estació.

Feu clic per veure les observacions i els pronòstics meteorològics.

Per canviar el mapa: feu clic els botons verds amb una creu de color negre per apropar; al botó verd amb un guió per allunyar la imatge; o en les fletxes verdes per a mapes adjacents.


METAR-TAF: